Hiller, Pennsylvania
Current Conditions -  °F | °C
As of 11:53 PM on Sunday 21 Dec 2014 (Local Time) from KAGC Reporting Station
Clear Clear  
Wind Chill: 21°   Ceiling: Unl
Heat Index: 26°   Visibility: 9mi
Dew Point: 19°   Wind: 5mph
Humidity: 75%   Direction: 60°ENE
Pressure: 30.17"   Gusts: NA
Location:  40.01°N, 79.9°W
Report Text: KAGC 220453Z 06004KT 9SM CLR M03/M07 A3017 RMK AO2 SLP234 T10331072 400111039
Loading
Personal Weather Stations






























Interactive Weather Map New forecast layout! Learn more

10-Day Weather Forecast

Advertisements
Track Severe Weather on mobile